createdAt,value
2022-07-26T00:00:00.693Z,21.1
2022-07-26T00:03:00.735Z,21.1
2022-07-26T00:06:00.594Z,21.1
2022-07-26T00:09:00.725Z,21.1
2022-07-26T00:12:00.646Z,21.1
2022-07-26T00:15:00.644Z,21.1
2022-07-26T00:18:00.644Z,21.1
2022-07-26T00:21:00.634Z,20.6
2022-07-26T00:24:00.685Z,20.6
2022-07-26T00:27:00.612Z,20.6
2022-07-26T00:30:00.627Z,20.6
2022-07-26T00:33:00.614Z,20.6
2022-07-26T00:36:00.603Z,20.6
2022-07-26T00:39:00.590Z,20.3
2022-07-26T00:42:00.615Z,20.3
2022-07-26T00:45:00.589Z,20.3
2022-07-26T00:48:00.674Z,20.3
2022-07-26T00:51:00.679Z,20.1
2022-07-26T00:54:00.624Z,20.1
2022-07-26T00:57:00.632Z,20.1
2022-07-26T01:00:00.630Z,20.1
2022-07-26T01:03:00.683Z,20.1
2022-07-26T01:06:00.587Z,20.1
2022-07-26T01:09:00.633Z,20.1
2022-07-26T01:12:00.651Z,20.1
2022-07-26T01:15:00.613Z,20.1
2022-07-26T01:18:00.608Z,20.1
2022-07-26T01:21:00.604Z,20.1
2022-07-26T01:24:00.632Z,20.1
2022-07-26T01:27:00.610Z,20.1
2022-07-26T01:30:00.600Z,19.6
2022-07-26T01:33:00.639Z,19.6
2022-07-26T01:36:00.596Z,19.6
2022-07-26T01:39:00.608Z,19.6
2022-07-26T01:42:00.647Z,19.6
2022-07-26T01:45:00.645Z,19.6
2022-07-26T01:48:00.604Z,19.6
2022-07-26T01:51:00.604Z,19.6
2022-07-26T01:54:00.597Z,19.6
2022-07-26T01:57:00.588Z,19.6
2022-07-26T02:00:00.635Z,19.6
2022-07-26T02:03:00.723Z,19.6
2022-07-26T02:06:00.626Z,19.6
2022-07-26T02:09:00.631Z,19.6
2022-07-26T02:12:00.608Z,19.6
2022-07-26T02:15:00.582Z,19.6
2022-07-26T02:18:00.650Z,19.6
2022-07-26T02:21:00.772Z,19.6
2022-07-26T02:24:00.598Z,19.6
2022-07-26T02:27:00.607Z,19.6
2022-07-26T02:30:00.586Z,19.4
2022-07-26T02:33:00.635Z,19.4
2022-07-26T02:36:00.607Z,19.4
2022-07-26T02:39:00.631Z,19.3
2022-07-26T02:42:00.610Z,19.3
2022-07-26T02:45:00.605Z,19.3
2022-07-26T02:48:00.623Z,19.3
2022-07-26T02:51:00.610Z,19.3
2022-07-26T02:54:00.583Z,19.3
2022-07-26T02:57:00.616Z,19.3
2022-07-26T03:00:00.666Z,19.3
2022-07-26T03:03:00.770Z,19.3
2022-07-26T03:06:00.653Z,19.3
2022-07-26T03:09:00.610Z,19.3
2022-07-26T03:12:00.621Z,19.3
2022-07-26T03:15:00.653Z,19.3
2022-07-26T03:18:00.617Z,19.3
2022-07-26T03:21:00.626Z,19.3
2022-07-26T03:24:00.593Z,19.3
2022-07-26T03:27:00.602Z,19.3
2022-07-26T03:30:00.609Z,18.9
2022-07-26T03:33:00.775Z,18.9
2022-07-26T03:36:00.658Z,18.9
2022-07-26T03:39:00.669Z,18.9
2022-07-26T03:42:00.640Z,18.9
2022-07-26T03:45:00.641Z,18.9
2022-07-26T03:48:00.670Z,18.9
2022-07-26T03:51:00.698Z,18.9
2022-07-26T03:54:00.592Z,18.9
2022-07-26T03:57:00.629Z,18.9
2022-07-26T04:00:00.755Z,18.9
2022-07-26T04:03:00.759Z,18.9
2022-07-26T04:06:00.625Z,18.9
2022-07-26T04:09:00.638Z,18.9
2022-07-26T04:12:00.672Z,18.9
2022-07-26T04:15:00.628Z,18.9
2022-07-26T04:18:00.662Z,18.9
2022-07-26T04:21:00.582Z,18.9
2022-07-26T04:24:00.651Z,19
2022-07-26T04:27:00.875Z,19
2022-07-26T04:30:00.637Z,19
2022-07-26T04:33:00.608Z,19
2022-07-26T04:36:00.618Z,19
2022-07-26T04:39:00.630Z,19
2022-07-26T04:42:00.668Z,19.4
2022-07-26T04:45:08.224Z,19.4
2022-07-26T04:48:00.668Z,19.4
2022-07-26T04:51:00.653Z,19.4
2022-07-26T04:54:00.644Z,19.4
2022-07-26T04:57:00.611Z,19.4
2022-07-26T05:00:22.110Z,19.4
2022-07-26T05:03:00.760Z,19.4
2022-07-26T05:06:00.686Z,19.4
2022-07-26T05:09:00.647Z,19.4
2022-07-26T05:12:00.689Z,19.4
2022-07-26T05:15:00.796Z,19.9
2022-07-26T05:18:00.642Z,19.9
2022-07-26T05:21:00.611Z,19.9
2022-07-26T05:24:00.645Z,19.9
2022-07-26T05:27:00.626Z,19.9
2022-07-26T05:30:00.896Z,19.9
2022-07-26T05:33:00.625Z,19.9
2022-07-26T05:36:00.642Z,19.9
2022-07-26T05:39:00.665Z,19.9
2022-07-26T05:42:00.626Z,19.9
2022-07-26T05:45:00.701Z,19.9
2022-07-26T05:48:00.628Z,19.9
2022-07-26T05:51:00.806Z,19.9
2022-07-26T05:54:00.615Z,19.9
2022-07-26T05:57:00.664Z,19.9
2022-07-26T06:00:00.701Z,20.4
2022-07-26T06:03:00.659Z,20.4
2022-07-26T06:06:00.639Z,20.4
2022-07-26T06:09:00.693Z,20.7
2022-07-26T06:12:00.748Z,20.7
2022-07-26T06:15:00.668Z,20.7
2022-07-26T06:18:00.700Z,21
2022-07-26T06:21:02.787Z,21
2022-07-26T06:24:00.660Z,21
2022-07-26T06:27:05.670Z,21
2022-07-26T06:30:00.686Z,21
2022-07-26T06:33:00.658Z,21
2022-07-26T06:36:00.762Z,21.5
2022-07-26T06:39:00.656Z,21.5
2022-07-26T06:42:00.682Z,21.5
2022-07-26T06:45:00.773Z,21.5
2022-07-26T06:48:00.635Z,21.5
2022-07-26T06:51:00.682Z,21.8
2022-07-26T06:54:01.228Z,21.8
2022-07-26T06:57:00.673Z,21.8
2022-07-26T07:00:00.735Z,21.8
2022-07-26T07:03:00.649Z,21.8
2022-07-26T07:06:00.666Z,21.8
2022-07-26T07:09:00.677Z,21.8
2022-07-26T07:12:09.603Z,21.8
2022-07-26T07:15:00.667Z,21.8
2022-07-26T07:18:00.707Z,21.8
2022-07-26T07:21:00.702Z,21.8
2022-07-26T07:24:00.674Z,21.8
2022-07-26T07:27:00.633Z,21.8
2022-07-26T07:30:00.648Z,21.8
2022-07-26T07:33:00.620Z,21.8
2022-07-26T07:36:00.626Z,21.8
2022-07-26T07:39:07.029Z,21.8
2022-07-26T07:42:00.631Z,22.4
2022-07-26T07:45:00.640Z,22.4
2022-07-26T07:48:00.635Z,22.4
2022-07-26T07:51:00.663Z,22.4
2022-07-26T07:54:05.771Z,22.4
2022-07-26T07:57:00.684Z,22.4
2022-07-26T08:00:00.731Z,22.4
2022-07-26T08:03:00.632Z,22.4
2022-07-26T08:06:00.686Z,22.4
2022-07-26T08:09:00.633Z,22.4
2022-07-26T08:12:00.892Z,22.4
2022-07-26T08:15:00.765Z,22.4
2022-07-26T08:18:00.690Z,22.4
2022-07-26T08:21:00.643Z,22.4
2022-07-26T08:24:00.687Z,22.4
2022-07-26T08:27:00.633Z,22.4
2022-07-26T08:30:00.758Z,22.9
2022-07-26T08:33:00.656Z,22.9
2022-07-26T08:36:00.683Z,22.9
2022-07-26T08:39:00.686Z,22.9
2022-07-26T08:42:00.644Z,22.9
2022-07-26T08:45:00.707Z,22.9
2022-07-26T08:48:18.279Z,23.4
2022-07-26T08:51:00.666Z,23.4
2022-07-26T08:54:06.320Z,23.4
2022-07-26T08:57:00.679Z,23.4
2022-07-26T09:00:00.674Z,23.4
2022-07-26T09:03:00.666Z,23.4
2022-07-26T09:06:00.688Z,23.4
2022-07-26T09:09:00.832Z,23.9
2022-07-26T09:12:00.659Z,23.9
2022-07-26T09:15:00.712Z,23.9
2022-07-26T09:18:00.694Z,23.9
2022-07-26T09:21:00.670Z,23.9
2022-07-26T09:24:00.672Z,23.9
2022-07-26T09:27:00.982Z,23.9
2022-07-26T09:30:00.752Z,23.9
2022-07-26T09:33:00.686Z,23.9
2022-07-26T09:36:00.690Z,23.9
2022-07-26T09:39:00.640Z,24.2
2022-07-26T09:42:28.763Z,24.2
2022-07-26T09:45:00.608Z,24.4
2022-07-26T09:48:00.700Z,24.4
2022-07-26T09:51:00.634Z,24.6
2022-07-26T09:54:00.672Z,24.6
2022-07-26T09:57:01.205Z,24.4
2022-07-26T10:00:00.732Z,23.4
2022-07-26T10:03:00.778Z,22.9
2022-07-26T10:06:00.634Z,22.9
2022-07-26T10:09:00.707Z,22.4
2022-07-26T10:12:00.673Z,22.4
2022-07-26T10:15:00.643Z,21.9
2022-07-26T10:18:00.636Z,21.9
2022-07-26T10:21:00.663Z,21.9
2022-07-26T10:24:00.643Z,21.9
2022-07-26T10:27:00.633Z,21.6
2022-07-26T10:30:00.676Z,21.6
2022-07-26T10:33:00.638Z,21.6
2022-07-26T10:36:00.684Z,21.1
2022-07-26T10:39:00.626Z,21.1
2022-07-26T10:42:00.649Z,21.1
2022-07-26T10:45:00.680Z,21.1
2022-07-26T10:48:00.665Z,21.1
2022-07-26T10:51:06.441Z,21.1
2022-07-26T10:54:00.672Z,21.1
2022-07-26T10:57:00.625Z,21.1
2022-07-26T11:00:00.749Z,21.1
2022-07-26T11:03:00.813Z,21.1
2022-07-26T11:06:00.649Z,21.1
2022-07-26T11:09:00.642Z,21.1
2022-07-26T11:12:00.637Z,21.1
2022-07-26T11:15:00.644Z,21.1
2022-07-26T11:18:00.674Z,21.1
2022-07-26T11:21:00.623Z,21.1
2022-07-26T11:24:00.670Z,21.1
2022-07-26T11:27:00.618Z,21.1
2022-07-26T11:30:00.715Z,21.1
2022-07-26T11:33:00.660Z,21.2
2022-07-26T11:36:00.655Z,21.2
2022-07-26T11:39:01.306Z,21.1
2022-07-26T11:42:00.686Z,21.1
2022-07-26T11:45:00.644Z,21.1
2022-07-26T11:48:00.632Z,21.1
2022-07-26T11:51:00.670Z,21.1
2022-07-26T11:54:00.657Z,21.1
2022-07-26T11:57:00.725Z,21.1
2022-07-26T12:00:01.618Z,21.1
2022-07-26T12:03:00.862Z,21.1
2022-07-26T12:06:00.701Z,21.1
2022-07-26T12:09:00.674Z,21.1
2022-07-26T12:12:00.690Z,21.1
2022-07-26T12:15:00.658Z,21.1
2022-07-26T12:18:00.684Z,21.1
2022-07-26T12:21:05.946Z,21.1
2022-07-26T12:24:00.668Z,21.6
2022-07-26T12:27:00.761Z,21.6
2022-07-26T12:30:00.798Z,21.6
2022-07-26T12:33:00.675Z,21.6
2022-07-26T12:36:00.664Z,21.6
2022-07-26T12:39:01.353Z,21.6
2022-07-26T12:42:00.678Z,21.6
2022-07-26T12:45:00.643Z,21.6
2022-07-26T12:48:00.673Z,21.6
2022-07-26T12:51:00.675Z,21.6
2022-07-26T12:54:00.681Z,21.5
2022-07-26T12:57:00.634Z,21.5
2022-07-26T13:00:00.698Z,21.5
2022-07-26T13:03:00.648Z,21.5
2022-07-26T13:06:00.694Z,21.5
2022-07-26T13:09:00.638Z,21.5
2022-07-26T13:12:00.671Z,21.5
2022-07-26T13:15:00.722Z,21.5
2022-07-26T13:18:00.668Z,21.6
2022-07-26T13:21:00.672Z,21.6
2022-07-26T13:24:00.678Z,21.6
2022-07-26T13:27:00.603Z,21.6
2022-07-26T13:30:00.893Z,21.6
2022-07-26T13:33:00.627Z,21.6
2022-07-26T13:36:00.674Z,21.6
2022-07-26T13:39:00.684Z,22.1
2022-07-26T13:42:00.658Z,22.1
2022-07-26T13:45:00.666Z,22.1
2022-07-26T13:48:00.680Z,22.1
2022-07-26T13:51:00.661Z,22.1
2022-07-26T13:54:00.690Z,22.1
2022-07-26T13:57:00.642Z,22.1
2022-07-26T14:00:00.732Z,22.1
2022-07-26T14:03:00.868Z,22.1
2022-07-26T14:06:00.696Z,22.1
2022-07-26T14:09:00.652Z,22.2
2022-07-26T14:12:00.620Z,22
2022-07-26T14:15:00.732Z,21.7
2022-07-26T14:18:00.674Z,21.7
2022-07-26T14:21:00.667Z,21.7
2022-07-26T14:24:00.623Z,21.7
2022-07-26T14:27:01.937Z,21.7
2022-07-26T14:30:00.739Z,21.7
2022-07-26T14:33:00.649Z,21.7
2022-07-26T14:36:00.712Z,21.7
2022-07-26T14:39:00.652Z,21.7
2022-07-26T14:42:00.665Z,21.7
2022-07-26T14:45:00.628Z,21.7
2022-07-26T14:48:00.758Z,21.7
2022-07-26T14:51:10.182Z,21.7
2022-07-26T14:54:00.693Z,21.7
2022-07-26T14:57:00.644Z,21.7
2022-07-26T15:00:00.727Z,21.7
2022-07-26T15:03:00.637Z,21.7
2022-07-26T15:06:00.662Z,21.7
2022-07-26T15:09:00.631Z,21.7
2022-07-26T15:12:00.682Z,21.8
2022-07-26T15:15:00.622Z,21.8
2022-07-26T15:18:00.643Z,21.8
2022-07-26T15:21:00.649Z,21.8
2022-07-26T15:24:00.676Z,21.8
2022-07-26T15:27:00.687Z,21.8
2022-07-26T15:30:09.018Z,21.8
2022-07-26T15:33:00.737Z,21.8
2022-07-26T15:36:06.123Z,21.8
2022-07-26T15:39:16.918Z,21.8
2022-07-26T15:42:07.390Z,21.8
2022-07-26T15:45:00.624Z,21.8
2022-07-26T15:48:17.177Z,21.8
2022-07-26T15:51:00.617Z,21.8
2022-07-26T15:54:00.652Z,21.8
2022-07-26T15:57:00.706Z,21.8
2022-07-26T16:00:05.587Z,21.8
2022-07-26T16:03:00.644Z,21.7
2022-07-26T16:06:05.964Z,21.7
2022-07-26T16:09:18.056Z,21.7
2022-07-26T16:12:06.342Z,21.7
2022-07-26T16:15:00.635Z,21.7
2022-07-26T16:18:06.531Z,21.7
2022-07-26T16:21:00.640Z,21.7
2022-07-26T16:24:06.964Z,21.7
2022-07-26T16:27:00.651Z,21.4
2022-07-26T16:30:00.745Z,21.4
2022-07-26T16:33:00.615Z,21.4
2022-07-26T16:36:06.429Z,21.4
2022-07-26T16:39:00.660Z,21.4
2022-07-26T16:42:06.990Z,21.4
2022-07-26T16:45:00.651Z,21.4
2022-07-26T16:48:00.641Z,21.4
2022-07-26T16:51:00.647Z,21.4
2022-07-26T16:54:00.657Z,21.4
2022-07-26T16:57:00.618Z,21.4
2022-07-26T17:00:00.709Z,21.4
2022-07-26T17:03:00.629Z,21.2
2022-07-26T17:06:06.615Z,21.2
2022-07-26T17:09:00.631Z,21.2
2022-07-26T17:12:06.720Z,21.2
2022-07-26T17:15:00.684Z,21.2
2022-07-26T17:18:00.636Z,20.9
2022-07-26T17:21:00.624Z,20.9
2022-07-26T17:24:05.737Z,20.9
2022-07-26T17:27:00.635Z,20.9
2022-07-26T17:30:06.742Z,20.9
2022-07-26T17:33:00.790Z,20.9
2022-07-26T17:36:06.943Z,20.9
2022-07-26T17:39:02.802Z,20.9
2022-07-26T17:42:00.684Z,20.9
2022-07-26T17:45:00.635Z,20.9
2022-07-26T17:48:06.252Z,20.9
2022-07-26T17:51:00.631Z,20.9
2022-07-26T17:54:00.655Z,20.9
2022-07-26T17:57:00.639Z,20.6
2022-07-26T18:00:06.484Z,20.6
2022-07-26T18:03:00.674Z,20.6
2022-07-26T18:06:00.851Z,20.4
2022-07-26T18:09:00.613Z,20.4
2022-07-26T18:12:00.678Z,20.4
2022-07-26T18:15:00.627Z,20.4
2022-07-26T18:18:00.712Z,20.1
2022-07-26T18:21:00.676Z,20.1
2022-07-26T18:24:17.645Z,20.1
2022-07-26T18:27:00.637Z,20.1
2022-07-26T18:30:00.659Z,20.1
2022-07-26T18:33:00.709Z,20.1
2022-07-26T18:36:00.632Z,20.1
2022-07-26T18:39:00.650Z,20.1
2022-07-26T18:42:00.705Z,20.1
2022-07-26T18:45:00.634Z,20.1
2022-07-26T18:48:00.634Z,20.1
2022-07-26T18:51:00.627Z,20.1
2022-07-26T18:54:00.647Z,20.1
2022-07-26T18:57:00.656Z,20
2022-07-26T19:00:00.648Z,20
2022-07-26T19:03:00.657Z,20
2022-07-26T19:06:00.702Z,20
2022-07-26T19:09:00.621Z,20
2022-07-26T19:12:00.629Z,20
2022-07-26T19:15:00.681Z,20
2022-07-26T19:18:00.673Z,20
2022-07-26T19:21:00.606Z,20
2022-07-26T19:24:00.632Z,20
2022-07-26T19:27:00.602Z,20
2022-07-26T19:30:00.641Z,20
2022-07-26T19:33:00.609Z,20
2022-07-26T19:36:00.589Z,20
2022-07-26T19:39:00.591Z,20
2022-07-26T19:42:00.686Z,20
2022-07-26T19:45:00.650Z,20
2022-07-26T19:48:00.673Z,19.5
2022-07-26T19:51:00.684Z,19.4
2022-07-26T19:54:00.656Z,19.4
2022-07-26T19:57:00.672Z,19.4
2022-07-26T20:00:00.702Z,19.4
2022-07-26T20:03:00.801Z,19.4
2022-07-26T20:06:00.631Z,19.4
2022-07-26T20:09:00.661Z,19.4
2022-07-26T20:12:00.627Z,19
2022-07-26T20:15:00.647Z,19
2022-07-26T20:18:00.677Z,19
2022-07-26T20:21:00.982Z,19
2022-07-26T20:24:00.613Z,19
2022-07-26T20:27:00.692Z,19
2022-07-26T20:30:01.641Z,19
2022-07-26T20:33:00.631Z,19
2022-07-26T20:36:00.668Z,19
2022-07-26T20:39:00.683Z,19
2022-07-26T20:42:01.669Z,19
2022-07-26T20:45:00.799Z,19
2022-07-26T20:48:00.640Z,18.6
2022-07-26T20:51:00.694Z,18.6
2022-07-26T20:54:00.675Z,18.6
2022-07-26T20:57:00.704Z,18.6
2022-07-26T21:00:00.685Z,18.6
2022-07-26T21:03:00.850Z,18.6
2022-07-26T21:06:00.783Z,18.6
2022-07-26T21:09:00.644Z,18.6
2022-07-26T21:12:00.688Z,18.6
2022-07-26T21:15:00.686Z,18.6
2022-07-26T21:18:00.689Z,18.3
2022-07-26T21:21:00.701Z,18.3
2022-07-26T21:24:00.669Z,18.3
2022-07-26T21:27:00.703Z,18.3
2022-07-26T21:30:00.700Z,18.3
2022-07-26T21:33:00.658Z,18.3
2022-07-26T21:36:00.642Z,18.3
2022-07-26T21:39:00.666Z,18.3
2022-07-26T21:42:00.692Z,18
2022-07-26T21:45:00.626Z,18
2022-07-26T21:48:00.725Z,18
2022-07-26T21:51:00.688Z,18
2022-07-26T21:54:01.653Z,18
2022-07-26T21:57:00.657Z,18
2022-07-26T22:00:03.081Z,18
2022-07-26T22:03:00.690Z,17.8
2022-07-26T22:06:00.624Z,17.8
2022-07-26T22:09:00.809Z,17.8
2022-07-26T22:12:00.642Z,17.8
2022-07-26T22:15:00.645Z,17.8
2022-07-26T22:18:00.642Z,17.8
2022-07-26T22:21:00.619Z,17.8
2022-07-26T22:24:00.648Z,17.8
2022-07-26T22:27:00.618Z,17.8
2022-07-26T22:30:00.642Z,17.8
2022-07-26T22:33:00.615Z,17.8
2022-07-26T22:36:00.684Z,17.3
2022-07-26T22:39:00.662Z,17.3
2022-07-26T22:42:16.072Z,17.3
2022-07-26T22:45:00.625Z,17.3
2022-07-26T22:48:00.640Z,17.3
2022-07-26T22:51:00.603Z,17.3
2022-07-26T22:54:00.668Z,17.3
2022-07-26T22:57:00.634Z,17.3
2022-07-26T23:00:00.652Z,17.3
2022-07-26T23:03:00.688Z,17.3
2022-07-26T23:06:00.665Z,17.3
2022-07-26T23:09:00.676Z,17.3
2022-07-26T23:12:00.630Z,17.3
2022-07-26T23:15:00.635Z,17.3
2022-07-26T23:18:00.651Z,17.3
2022-07-26T23:21:00.647Z,17.3
2022-07-26T23:24:00.649Z,17.3
2022-07-26T23:27:00.675Z,17.3
2022-07-26T23:30:00.649Z,16.8
2022-07-26T23:33:00.641Z,16.8
2022-07-26T23:36:00.623Z,16.8
2022-07-26T23:39:00.675Z,16.8
2022-07-26T23:42:00.633Z,16.8
2022-07-26T23:45:00.651Z,16.8
2022-07-26T23:48:00.617Z,16.8
2022-07-26T23:51:00.680Z,16.8
2022-07-26T23:54:00.677Z,16.8
2022-07-26T23:57:00.649Z,16.8
